createdAt,value
2023-04-16T00:01:38.607Z,5.22
2023-04-16T00:04:06.014Z,6.93
2023-04-16T00:06:36.761Z,7.18
2023-04-16T00:09:03.847Z,6.32
2023-04-16T00:11:30.442Z,6.80
2023-04-16T00:13:56.988Z,6.25
2023-04-16T00:16:23.808Z,6.05
2023-04-16T00:18:50.412Z,6.57
2023-04-16T00:21:17.009Z,6.53
2023-04-16T00:23:46.821Z,6.05
2023-04-16T00:26:13.405Z,5.85
2023-04-16T00:28:39.940Z,6.10
2023-04-16T00:31:06.585Z,5.90
2023-04-16T00:33:33.199Z,6.10
2023-04-16T00:36:01.112Z,5.55
2023-04-16T00:38:30.472Z,7.25
2023-04-16T00:40:59.817Z,5.75
2023-04-16T00:43:27.125Z,5.75
2023-04-16T00:45:56.696Z,5.43
2023-04-16T00:48:23.710Z,5.57
2023-04-16T00:50:50.338Z,5.32
2023-04-16T00:53:17.041Z,4.78
2023-04-16T00:55:44.577Z,5.03
2023-04-16T00:58:11.244Z,5.45
2023-04-16T01:00:41.622Z,4.22
2023-04-16T01:03:09.590Z,5.30
2023-04-16T01:05:37.082Z,4.18
2023-04-16T01:08:03.699Z,4.60
2023-04-16T01:10:30.828Z,4.68
2023-04-16T01:12:57.433Z,4.35
2023-04-16T01:15:24.036Z,4.32
2023-04-16T01:17:50.902Z,4.63
2023-04-16T01:20:17.643Z,4.18
2023-04-16T01:22:44.224Z,5.13
2023-04-16T01:25:14.591Z,3.70
2023-04-16T01:27:41.265Z,3.67
2023-04-16T01:30:08.481Z,4.13
2023-04-16T01:32:35.108Z,4.22
2023-04-16T01:35:02.044Z,4.78
2023-04-16T01:37:28.948Z,4.95
2023-04-16T01:39:55.659Z,5.38
2023-04-16T01:42:22.197Z,5.00
2023-04-16T01:44:48.801Z,7.22
2023-04-16T01:47:15.629Z,5.97
2023-04-16T01:49:44.159Z,5.95
2023-04-16T01:52:11.211Z,5.53
2023-04-16T01:54:37.810Z,6.15
2023-04-16T01:57:04.503Z,5.65
2023-04-16T01:59:31.500Z,6.88
2023-04-16T02:02:16.353Z,5.97
2023-04-16T02:04:45.414Z,5.57
2023-04-16T02:07:12.429Z,6.05
2023-04-16T02:09:41.040Z,4.75
2023-04-16T02:12:07.862Z,5.97
2023-04-16T02:14:34.476Z,5.63
2023-04-16T02:17:01.209Z,5.70
2023-04-16T02:19:27.865Z,5.80
2023-04-16T02:21:54.994Z,5.22
2023-04-16T02:24:21.827Z,4.75
2023-04-16T02:26:48.538Z,4.97
2023-04-16T02:29:16.539Z,5.30
2023-04-16T02:31:43.466Z,5.57
2023-04-16T02:34:10.181Z,4.90
2023-04-16T02:36:37.052Z,5.80
2023-04-16T02:39:03.955Z,5.82
2023-04-16T02:41:30.645Z,5.03
2023-04-16T02:43:57.282Z,6.00
2023-04-16T02:46:24.008Z,4.72
2023-04-16T02:48:50.881Z,5.00
2023-04-16T02:51:17.494Z,5.53
2023-04-16T02:53:46.087Z,5.28
2023-04-16T02:56:13.091Z,5.00
2023-04-16T02:58:39.771Z,4.50
2023-04-16T03:01:06.437Z,4.75
2023-04-16T03:03:33.048Z,4.78
2023-04-16T03:05:59.594Z,4.85
2023-04-16T03:08:26.485Z,4.50
2023-04-16T03:10:53.132Z,4.05
2023-04-16T03:13:19.702Z,3.80
2023-04-16T03:15:50.078Z,4.88
2023-04-16T03:18:16.890Z,4.78
2023-04-16T03:20:43.468Z,5.05
2023-04-16T03:23:10.089Z,4.97
2023-04-16T03:25:36.690Z,4.10
2023-04-16T03:28:04.092Z,3.95
2023-04-16T03:30:30.876Z,4.15
2023-04-16T03:32:57.461Z,3.70
2023-04-16T03:35:24.077Z,5.18
2023-04-16T03:37:51.816Z,4.57
2023-04-16T03:40:18.466Z,4.35
2023-04-16T03:42:45.099Z,4.18
2023-04-16T03:45:11.728Z,4.28
2023-04-16T03:47:38.437Z,4.40
2023-04-16T03:50:05.547Z,4.03
2023-04-16T03:52:32.202Z,3.67
2023-04-16T03:54:58.875Z,4.85
2023-04-16T03:57:25.426Z,4.30
2023-04-16T03:59:52.003Z,3.47
2023-04-16T04:02:18.712Z,3.80
2023-04-16T04:04:45.363Z,3.30
2023-04-16T04:07:12.017Z,2.88
2023-04-16T04:09:38.582Z,3.55
2023-04-16T04:12:08.036Z,2.83
2023-04-16T04:14:39.712Z,4.35
2023-04-16T04:17:06.996Z,5.28
2023-04-16T04:19:33.868Z,2.70
2023-04-16T04:22:00.445Z,2.88
2023-04-16T04:24:27.232Z,2.15
2023-04-16T04:26:53.792Z,3.95
2023-04-16T04:29:20.816Z,2.00
2023-04-16T04:31:48.124Z,2.05
2023-04-16T04:34:15.771Z,1.70
2023-04-16T04:36:43.526Z,2.08
2023-04-16T04:39:13.068Z,1.42
2023-04-16T04:41:40.159Z,1.48
2023-04-16T04:44:07.498Z,0.98
2023-04-16T04:46:35.223Z,1.30
2023-04-16T04:49:02.248Z,1.30
2023-04-16T04:51:42.126Z,1.88
2023-04-16T04:54:09.412Z,1.85
2023-04-16T04:56:36.565Z,0.80
2023-04-16T04:59:06.298Z,1.45
2023-04-16T05:01:33.463Z,1.25
2023-04-16T05:04:00.966Z,1.58
2023-04-16T05:06:29.616Z,0.98
2023-04-16T05:08:57.028Z,1.88
2023-04-16T05:11:24.151Z,0.90
2023-04-16T05:13:50.766Z,0.68
2023-04-16T05:16:17.429Z,1.48
2023-04-16T05:18:44.071Z,0.82
2023-04-16T05:21:10.676Z,1.20
2023-04-16T05:23:39.242Z,0.60
2023-04-16T05:26:09.586Z,0.50
2023-04-16T05:28:36.877Z,1.05
2023-04-16T05:31:03.847Z,0.52
2023-04-16T05:33:31.251Z,0.50
2023-04-16T05:35:58.374Z,0.90
2023-04-16T05:38:25.450Z,1.20
2023-04-16T05:40:52.425Z,1.40
2023-04-16T05:43:20.823Z,1.98
2023-04-16T05:45:48.489Z,0.60
2023-04-16T05:48:15.715Z,0.60
2023-04-16T05:50:42.872Z,1.13
2023-04-16T05:53:11.283Z,0.50
2023-04-16T05:55:38.794Z,0.40
2023-04-16T05:58:06.081Z,0.52
2023-04-16T06:01:46.127Z,0.50
2023-04-16T06:04:14.136Z,0.77
2023-04-16T06:06:42.221Z,0.68
2023-04-16T06:09:08.970Z,0.50
2023-04-16T06:11:36.556Z,0.60
2023-04-16T06:14:03.238Z,2.42
2023-04-16T06:16:30.014Z,0.63
2023-04-16T06:18:56.622Z,0.40
2023-04-16T06:21:23.588Z,0.65
2023-04-16T06:23:51.821Z,0.40
2023-04-16T06:26:18.986Z,0.98
2023-04-16T06:28:46.828Z,0.32
2023-04-16T06:31:14.924Z,0.50
2023-04-16T06:33:41.966Z,0.73
2023-04-16T06:36:09.316Z,0.38
2023-04-16T06:38:38.099Z,0.40
2023-04-16T06:41:06.146Z,0.35
2023-04-16T06:43:34.454Z,0.40
2023-04-16T06:46:17.662Z,0.38
2023-04-16T06:49:10.929Z,0.30
2023-04-16T06:54:58.082Z,0.50
2023-04-16T06:57:32.329Z,0.55
2023-04-16T07:00:32.462Z,0.30
2023-04-16T07:03:49.662Z,0.30
2023-04-16T07:06:20.367Z,0.35
2023-04-16T07:09:03.048Z,0.20
2023-04-16T07:12:03.226Z,0.52
2023-04-16T07:14:31.602Z,0.30
2023-04-16T07:16:59.888Z,1.08
2023-04-16T07:19:30.790Z,0.68
2023-04-16T07:21:58.293Z,0.90
2023-04-16T07:24:25.209Z,1.95
2023-04-16T07:26:51.792Z,3.15
2023-04-16T07:29:18.382Z,2.10
2023-04-16T07:31:45.847Z,3.75
2023-04-16T07:34:14.001Z,1.50
2023-04-16T07:36:41.687Z,0.60
2023-04-16T07:39:08.495Z,1.83
2023-04-16T07:41:35.417Z,3.53
2023-04-16T07:44:02.044Z,3.38
2023-04-16T07:46:39.330Z,2.88
2023-04-16T07:49:12.606Z,2.85
2023-04-16T07:51:39.155Z,2.47
2023-04-16T07:54:05.693Z,4.18
2023-04-16T07:56:32.368Z,3.97
2023-04-16T07:59:07.962Z,4.43
2023-04-16T08:01:45.726Z,3.50
2023-04-16T08:04:12.614Z,1.85
2023-04-16T08:06:39.244Z,1.27
2023-04-16T08:09:05.781Z,1.95
2023-04-16T08:11:32.514Z,2.60
2023-04-16T08:13:59.061Z,2.25
2023-04-16T08:16:25.940Z,1.90
2023-04-16T08:18:52.495Z,1.50
2023-04-16T08:21:19.108Z,1.15
2023-04-16T08:23:45.778Z,1.10
2023-04-16T08:26:12.319Z,1.13
2023-04-16T08:28:58.254Z,2.85
2023-04-16T08:31:37.909Z,2.30
2023-04-16T08:34:22.274Z,0.68
2023-04-16T08:39:32.273Z,1.38
2023-04-16T08:42:01.888Z,0.60
2023-04-16T08:44:34.241Z,1.00
2023-04-16T08:47:02.807Z,0.60
2023-04-16T08:49:30.697Z,2.55
2023-04-16T08:51:59.040Z,2.45
2023-04-16T08:54:56.744Z,3.10
2023-04-16T08:57:50.794Z,0.88
2023-04-16T09:00:36.384Z,1.85
2023-04-16T09:06:14.895Z,1.10
2023-04-16T09:08:44.567Z,0.60
2023-04-16T09:11:23.108Z,1.27
2023-04-16T09:14:02.942Z,0.75
2023-04-16T09:16:38.171Z,1.95
2023-04-16T09:19:05.080Z,2.53
2023-04-16T09:21:32.376Z,4.47
2023-04-16T09:24:00.193Z,2.25
2023-04-16T09:26:27.796Z,4.32
2023-04-16T09:28:54.392Z,10.25
2023-04-16T09:31:21.730Z,14.95
2023-04-16T09:34:21.227Z,9.50
2023-04-16T09:36:47.721Z,9.40
2023-04-16T09:39:20.602Z,8.98
2023-04-16T09:41:48.050Z,14.30
2023-04-16T09:44:14.720Z,6.75
2023-04-16T09:46:42.304Z,2.13
2023-04-16T09:49:10.610Z,0.88
2023-04-16T09:51:45.337Z,0.60
2023-04-16T09:54:12.075Z,0.75
2023-04-16T09:56:46.843Z,2.72
2023-04-16T09:59:23.515Z,1.23
2023-04-16T10:01:53.330Z,0.77
2023-04-16T10:05:21.615Z,1.02
2023-04-16T10:08:41.194Z,1.58
2023-04-16T10:11:08.065Z,1.42
2023-04-16T10:13:34.668Z,2.95
2023-04-16T10:16:01.632Z,2.53
2023-04-16T10:18:29.259Z,1.20
2023-04-16T10:20:56.201Z,1.52
2023-04-16T10:23:23.250Z,1.77
2023-04-16T10:25:50.623Z,1.40
2023-04-16T10:28:17.480Z,1.73
2023-04-16T10:30:52.700Z,1.02
2023-04-16T10:33:21.927Z,2.75
2023-04-16T10:36:04.777Z,2.25
2023-04-16T10:38:34.286Z,1.00
2023-04-16T10:41:04.556Z,1.50
2023-04-16T10:43:33.073Z,0.65
2023-04-16T10:46:24.039Z,1.83
2023-04-16T10:48:54.018Z,1.95
2023-04-16T10:51:34.267Z,3.30
2023-04-16T10:54:12.583Z,1.60
2023-04-16T10:56:39.279Z,1.45
2023-04-16T10:59:07.346Z,1.15
2023-04-16T11:01:36.882Z,1.65
2023-04-16T11:04:22.315Z,1.77
2023-04-16T11:07:15.400Z,1.00
2023-04-16T11:09:52.691Z,6.90
2023-04-16T11:12:30.615Z,4.43
2023-04-16T11:15:04.507Z,6.80
2023-04-16T11:17:50.680Z,1.48
2023-04-16T11:20:22.137Z,1.25
2023-04-16T11:22:49.781Z,1.95
2023-04-16T11:25:31.407Z,2.50
2023-04-16T11:28:01.487Z,1.33
2023-04-16T11:30:30.483Z,3.15
2023-04-16T11:32:57.334Z,1.23
2023-04-16T11:35:24.009Z,1.75
2023-04-16T11:37:55.353Z,1.92
2023-04-16T11:40:22.194Z,1.02
2023-04-16T11:42:49.146Z,1.45
2023-04-16T11:45:15.741Z,1.48
2023-04-16T11:47:47.971Z,1.63
2023-04-16T11:50:26.109Z,4.38
2023-04-16T11:52:57.563Z,2.88
2023-04-16T11:55:24.847Z,4.28
2023-04-16T11:57:52.654Z,2.55
2023-04-16T12:00:24.602Z,2.03
2023-04-16T12:02:54.404Z,1.67
2023-04-16T12:05:35.908Z,1.95
2023-04-16T12:08:07.496Z,1.10
2023-04-16T12:10:36.736Z,1.92
2023-04-16T12:13:14.605Z,1.00
2023-04-16T12:15:51.784Z,0.70
2023-04-16T12:18:20.459Z,0.70
2023-04-16T12:20:47.588Z,0.82
2023-04-16T12:23:32.010Z,1.70
2023-04-16T12:26:02.625Z,0.68
2023-04-16T12:28:38.320Z,1.00
2023-04-16T12:31:06.100Z,1.25
2023-04-16T12:33:32.959Z,1.02
2023-04-16T12:35:59.870Z,1.58
2023-04-16T12:38:29.048Z,1.85
2023-04-16T12:40:57.336Z,1.58
2023-04-16T12:43:42.317Z,1.33
2023-04-16T12:46:14.913Z,1.67
2023-04-16T12:48:43.891Z,2.17
2023-04-16T12:51:10.524Z,1.30
2023-04-16T12:53:37.145Z,2.38
2023-04-16T12:56:03.868Z,5.43
2023-04-16T12:58:30.554Z,2.80
2023-04-16T13:00:57.121Z,2.67
2023-04-16T13:03:23.967Z,1.25
2023-04-16T13:05:51.235Z,6.18
2023-04-16T13:08:17.872Z,2.40
2023-04-16T13:10:45.620Z,5.03
2023-04-16T13:13:12.197Z,2.38
2023-04-16T13:15:39.379Z,2.80
2023-04-16T13:18:06.138Z,2.33
2023-04-16T13:20:33.485Z,3.63
2023-04-16T13:23:00.148Z,1.75
2023-04-16T13:25:27.450Z,3.35
2023-04-16T13:28:06.630Z,2.40
2023-04-16T13:30:58.450Z,1.88
2023-04-16T13:33:48.980Z,2.30
2023-04-16T13:36:24.248Z,2.85
2023-04-16T13:38:55.232Z,3.22
2023-04-16T13:41:25.781Z,2.50
2023-04-16T13:43:53.789Z,2.47
2023-04-16T13:46:21.497Z,2.50
2023-04-16T13:48:48.173Z,1.90
2023-04-16T13:51:15.624Z,4.05
2023-04-16T13:53:42.220Z,1.55
2023-04-16T13:56:08.866Z,2.63
2023-04-16T13:58:35.588Z,2.20
2023-04-16T14:01:02.209Z,1.80
2023-04-16T14:03:29.036Z,1.95
2023-04-16T14:05:55.909Z,1.50
2023-04-16T14:08:22.541Z,1.40
2023-04-16T14:10:49.431Z,1.42
2023-04-16T14:13:16.399Z,1.48
2023-04-16T14:15:42.976Z,2.22
2023-04-16T14:18:09.620Z,1.90
2023-04-16T14:20:36.449Z,2.10
2023-04-16T14:23:04.109Z,2.53
2023-04-16T14:25:30.950Z,2.70
2023-04-16T14:28:00.072Z,2.03
2023-04-16T14:30:27.206Z,2.17
2023-04-16T14:32:53.907Z,2.00
2023-04-16T14:35:21.348Z,2.47
2023-04-16T14:37:47.950Z,3.65
2023-04-16T14:40:15.128Z,5.45
2023-04-16T14:42:42.056Z,3.00
2023-04-16T14:45:09.253Z,6.10
2023-04-16T14:47:37.801Z,3.47
2023-04-16T14:50:05.469Z,30.67
2023-04-16T14:52:32.651Z,5.35
2023-04-16T14:54:59.314Z,8.93
2023-04-16T14:57:26.745Z,5.45
2023-04-16T14:59:53.326Z,4.63
2023-04-16T15:02:20.168Z,4.15
2023-04-16T15:04:46.850Z,4.13
2023-04-16T15:07:13.449Z,3.63
2023-04-16T15:09:39.993Z,3.47
2023-04-16T15:12:06.649Z,4.80
2023-04-16T15:14:33.222Z,4.00
2023-04-16T15:16:59.902Z,4.60
2023-04-16T15:19:26.446Z,4.13
2023-04-16T15:21:53.454Z,4.20
2023-04-16T15:24:20.124Z,5.85
2023-04-16T15:26:46.753Z,5.80
2023-04-16T15:29:13.437Z,3.72
2023-04-16T15:31:40.118Z,5.05
2023-04-16T15:34:06.907Z,3.63
2023-04-16T15:36:33.528Z,5.72
2023-04-16T15:39:03.577Z,4.95
2023-04-16T15:41:31.914Z,3.97
2023-04-16T15:43:58.547Z,4.35
2023-04-16T15:46:25.259Z,4.65
2023-04-16T15:48:51.905Z,3.20
2023-04-16T15:51:18.564Z,3.63
2023-04-16T15:53:45.434Z,4.65
2023-04-16T15:56:12.224Z,5.22
2023-04-16T15:58:38.787Z,6.40
2023-04-16T16:01:05.391Z,5.03
2023-04-16T16:03:33.939Z,4.22
2023-04-16T16:06:01.683Z,4.55
2023-04-16T16:08:29.057Z,4.70
2023-04-16T16:10:55.588Z,3.97
2023-04-16T16:13:22.125Z,4.28
2023-04-16T16:15:48.891Z,4.13
2023-04-16T16:18:15.593Z,4.88
2023-04-16T16:20:42.153Z,3.90
2023-04-16T16:23:08.773Z,4.63
2023-04-16T16:25:35.559Z,3.47
2023-04-16T16:28:04.286Z,4.03
2023-04-16T16:30:32.541Z,5.85
2023-04-16T16:32:59.289Z,3.75
2023-04-16T16:35:26.295Z,4.82
2023-04-16T16:37:55.754Z,3.97
2023-04-16T16:40:22.894Z,6.50
2023-04-16T16:42:49.474Z,5.05
2023-04-16T16:45:16.861Z,2.28
2023-04-16T16:47:43.495Z,3.08
2023-04-16T16:50:11.623Z,3.05
2023-04-16T16:52:39.071Z,3.03
2023-04-16T16:55:10.959Z,3.72
2023-04-16T16:57:40.604Z,3.25
2023-04-16T17:00:15.175Z,3.00
2023-04-16T17:02:42.171Z,3.17
2023-04-16T17:05:09.408Z,2.88
2023-04-16T17:07:36.407Z,3.72
2023-04-16T17:10:05.271Z,2.47
2023-04-16T17:12:33.376Z,2.22
2023-04-16T17:14:59.925Z,3.70
2023-04-16T17:17:27.571Z,2.17
2023-04-16T17:19:54.486Z,3.53
2023-04-16T17:22:21.683Z,3.53
2023-04-16T17:24:48.309Z,3.17
2023-04-16T17:27:14.978Z,3.53
2023-04-16T17:29:41.669Z,3.33
2023-04-16T17:32:08.371Z,3.65
2023-04-16T17:34:35.257Z,3.60
2023-04-16T17:37:01.888Z,4.90
2023-04-16T17:39:32.995Z,3.47
2023-04-16T17:42:01.320Z,4.07
2023-04-16T17:44:28.175Z,3.20
2023-04-16T17:46:54.762Z,3.40
2023-04-16T17:49:21.409Z,3.22
2023-04-16T17:51:49.175Z,4.10
2023-04-16T17:54:16.039Z,4.38
2023-04-16T17:56:42.807Z,3.88
2023-04-16T17:59:24.378Z,4.28
2023-04-16T18:01:51.797Z,3.15
2023-04-16T18:04:42.372Z,4.05
2023-04-16T18:07:11.392Z,3.83
2023-04-16T18:09:38.192Z,3.90
2023-04-16T18:12:05.090Z,4.15
2023-04-16T18:14:33.707Z,5.45
2023-04-16T18:17:03.700Z,4.32
2023-04-16T18:19:32.579Z,4.97
2023-04-16T18:22:13.198Z,4.72
2023-04-16T18:24:40.586Z,5.82
2023-04-16T18:27:07.404Z,5.45
2023-04-16T18:29:34.152Z,4.75
2023-04-16T18:32:03.683Z,4.63
2023-04-16T18:34:31.601Z,5.38
2023-04-16T18:36:58.466Z,4.38
2023-04-16T18:39:25.153Z,4.70
2023-04-16T18:41:52.118Z,5.60
2023-04-16T18:44:19.823Z,13.82
2023-04-16T18:46:46.562Z,7.60
2023-04-16T18:49:13.591Z,5.53
2023-04-16T18:51:41.921Z,5.15
2023-04-16T18:54:08.514Z,6.40
2023-04-16T18:56:35.150Z,11.60
2023-04-16T18:59:01.772Z,6.40
2023-04-16T19:01:28.373Z,5.78
2023-04-16T19:03:55.404Z,5.68
2023-04-16T19:06:22.100Z,6.55
2023-04-16T19:08:48.685Z,6.32
2023-04-16T19:11:15.231Z,6.85
2023-04-16T19:13:41.945Z,5.93
2023-04-16T19:16:11.720Z,5.97
2023-04-16T19:18:39.100Z,6.70
2023-04-16T19:21:07.026Z,6.38
2023-04-16T19:23:33.743Z,7.93
2023-04-16T19:26:01.703Z,8.18
2023-04-16T19:28:28.825Z,6.75
2023-04-16T19:30:56.015Z,6.38
2023-04-16T19:33:22.626Z,7.40
2023-04-16T19:35:49.191Z,7.20
2023-04-16T19:38:15.894Z,6.10
2023-04-16T19:40:48.960Z,6.80
2023-04-16T19:43:15.718Z,6.88
2023-04-16T19:45:46.597Z,6.82
2023-04-16T19:48:13.537Z,7.97
2023-04-16T19:50:43.260Z,7.20
2023-04-16T19:53:11.041Z,12.50
2023-04-16T19:55:41.308Z,9.00
2023-04-16T19:58:08.551Z,8.82
2023-04-16T20:00:37.820Z,9.80
2023-04-16T20:03:05.243Z,10.50
2023-04-16T20:05:32.075Z,10.25
2023-04-16T20:07:58.652Z,12.38
2023-04-16T20:10:26.088Z,10.63
2023-04-16T20:12:52.668Z,4.93
2023-04-16T20:15:19.341Z,4.85
2023-04-16T20:17:46.265Z,4.60
2023-04-16T20:20:15.615Z,3.58
2023-04-16T20:22:42.969Z,4.38
2023-04-16T20:25:10.053Z,3.80
2023-04-16T20:27:36.605Z,3.20
2023-04-16T20:30:04.137Z,4.22
2023-04-16T20:32:31.037Z,3.58
2023-04-16T20:34:57.671Z,3.50
2023-04-16T20:37:24.240Z,3.63
2023-04-16T20:39:54.185Z,3.22
2023-04-16T20:42:22.102Z,2.78
2023-04-16T20:44:56.315Z,3.20
2023-04-16T20:47:23.254Z,3.40
2023-04-16T20:49:49.862Z,4.22
2023-04-16T20:52:16.759Z,7.00
2023-04-16T20:54:47.186Z,2.28
2023-04-16T20:57:13.901Z,2.72
2023-04-16T20:59:40.470Z,2.30
2023-04-16T21:02:07.945Z,2.30
2023-04-16T21:04:34.815Z,2.72
2023-04-16T21:07:03.883Z,2.70
2023-04-16T21:09:31.376Z,2.38
2023-04-16T21:11:58.201Z,1.75
2023-04-16T21:14:24.851Z,2.15
2023-04-16T21:16:51.478Z,2.78
2023-04-16T21:19:18.120Z,2.08
2023-04-16T21:21:44.991Z,3.92
2023-04-16T21:24:11.594Z,3.63
2023-04-16T21:26:38.232Z,3.80
2023-04-16T21:29:04.798Z,3.45
2023-04-16T21:31:31.465Z,2.28
2023-04-16T21:33:58.046Z,1.88
2023-04-16T21:36:26.568Z,3.40
2023-04-16T21:38:53.283Z,3.40
2023-04-16T21:41:19.813Z,2.80
2023-04-16T21:43:46.403Z,3.17
2023-04-16T21:46:13.062Z,2.33
2023-04-16T21:48:39.702Z,2.88
2023-04-16T21:51:06.845Z,2.30
2023-04-16T21:53:33.943Z,2.40
2023-04-16T21:56:00.769Z,4.50
2023-04-16T21:58:27.392Z,4.38
2023-04-16T22:00:54.304Z,2.67
2023-04-16T22:03:28.004Z,3.90
2023-04-16T22:08:31.066Z,3.47
2023-04-16T22:10:59.344Z,5.10
2023-04-16T22:13:26.553Z,4.60
2023-04-16T22:15:53.595Z,3.70
2023-04-16T22:18:20.338Z,3.25
2023-04-16T22:20:50.998Z,4.32
2023-04-16T22:23:17.709Z,5.43
2023-04-16T22:25:44.495Z,3.90
2023-04-16T22:28:11.246Z,5.10
2023-04-16T22:30:37.801Z,5.18
2023-04-16T22:33:04.523Z,3.15
2023-04-16T22:35:31.242Z,3.33
2023-04-16T22:37:57.833Z,2.40
2023-04-16T22:40:24.420Z,2.35
2023-04-16T22:42:51.148Z,2.85
2023-04-16T22:45:17.789Z,2.45
2023-04-16T22:47:44.457Z,2.60
2023-04-16T22:50:11.841Z,1.63
2023-04-16T22:52:38.396Z,2.20
2023-04-16T22:55:08.502Z,2.58
2023-04-16T22:57:35.210Z,3.22
2023-04-16T23:00:02.060Z,3.08
2023-04-16T23:02:28.768Z,2.47
2023-04-16T23:04:55.404Z,2.80
2023-04-16T23:07:21.934Z,2.35
2023-04-16T23:09:48.524Z,2.80
2023-04-16T23:12:16.265Z,3.05
2023-04-16T23:14:45.865Z,4.72
2023-04-16T23:17:13.833Z,2.42
2023-04-16T23:19:40.484Z,1.95
2023-04-16T23:22:07.074Z,1.98
2023-04-16T23:24:33.624Z,2.25
2023-04-16T23:27:01.086Z,2.80
2023-04-16T23:29:27.696Z,2.70
2023-04-16T23:31:54.270Z,3.28
2023-04-16T23:34:21.031Z,3.03
2023-04-16T23:36:47.698Z,3.75
2023-04-16T23:39:14.226Z,2.35
2023-04-16T23:41:40.857Z,2.58
2023-04-16T23:44:07.412Z,3.35
2023-04-16T23:46:34.089Z,3.80
2023-04-16T23:49:00.765Z,4.32
2023-04-16T23:51:27.652Z,3.42
2023-04-16T23:53:54.259Z,3.70
2023-04-16T23:56:20.833Z,3.90
2023-04-16T23:58:47.377Z,3.30
